Time;durP1;ratioP1;P1;durP2;ratioP2;P2;SDS_P1;SDS_P2;PMS_P1;PMS_P2;Temp;Humidity;BMP_temperature;BMP_pressure;BME280_temperature;BME280_humidity;BME280_pressure;Samples;Min_cycle;Max_cycle;Signal;HPM_P1;HPM_P2
2023/09/21 00:01:05;;;;;;;1.93;1.30;;;;;;;;;;5090328;28;20543;-51
2023/09/21 00:03:32;;;;;;;2.17;1.37;;;;;;;;;;5088905;28;20234;-50
2023/09/21 00:05:59;;;;;;;2.50;1.70;;;;;;;;;;5088978;28;20172;-48
2023/09/21 00:08:25;;;;;;;4.63;1.60;;;;;;;;;;5087886;28;20211;-51
2023/09/21 00:10:52;;;;;;;3.33;1.60;;;;;;;;;;5088498;28;20305;-50
2023/09/21 00:13:18;;;;;;;2.70;1.93;;;;;;;;;;5090004;28;20180;-51
2023/09/21 00:15:45;;;;;;;1.83;1.47;;;;;;;;;;5090536;28;20208;-49
2023/09/21 00:18:13;;;;;;;2.67;1.33;;;;;;;;;;5090116;28;20240;-49
2023/09/21 00:20:45;;;;;;;1.53;1.30;;;;;;;;;;5091054;28;20183;-48
2023/09/21 00:23:11;;;;;;;2.23;1.40;;;;;;;;;;5090009;28;20191;-48
2023/09/21 00:25:38;;;;;;;1.80;1.13;;;;;;;;;;5093393;28;20300;-51
2023/09/21 00:28:12;;;;;;;3.03;1.60;;;;;;;;;;5092725;28;20222;-49
2023/09/21 00:30:38;;;;;;;3.03;1.50;;;;;;;;;;5091801;28;20198;-50
2023/09/21 00:33:08;;;;;;;1.80;1.50;;;;;;;;;;5091586;28;20607;-47
2023/09/21 00:35:40;;;;;;;2.13;1.93;;;;;;;;;;5092390;28;20583;-50
2023/09/21 00:38:10;;;;;;;3.90;1.37;;;;;;;;;;5091359;28;20172;-49
2023/09/21 00:40:38;;;;;;;1.70;1.33;;;;;;;;;;5090244;28;20176;-49
2023/09/21 00:43:04;;;;;;;1.97;1.20;;;;;;;;;;5090925;28;20199;-49
2023/09/21 00:45:30;;;;;;;3.40;1.50;;;;;;;;;;5091383;28;20486;-50
2023/09/21 00:47:57;;;;;;;6.30;1.83;;;;;;;;;;5090579;28;20291;-47
2023/09/21 00:50:24;;;;;;;1.90;1.47;;;;;;;;;;5091576;28;20175;-54
2023/09/21 00:52:54;;;;;;;2.23;1.77;;;;;;;;;;5091128;28;20203;-47
2023/09/21 00:55:23;;;;;;;1.63;1.40;;;;;;;;;;5091555;28;20562;-50
2023/09/21 00:57:50;;;;;;;1.43;1.30;;;;;;;;;;5092712;28;20623;-47
2023/09/21 01:00:19;;;;;;;3.83;1.50;;;;;;;;;;5091828;28;20204;-47
2023/09/21 01:02:49;;;;;;;2.30;1.30;;;;;;;;;;5089058;28;20173;-47
2023/09/21 01:05:16;;;;;;;2.97;1.80;;;;;;;;;;5090423;28;20171;-49
2023/09/21 01:07:43;;;;;;;1.50;1.40;;;;;;;;;;5089910;28;20231;-49
2023/09/21 01:10:13;;;;;;;2.10;1.33;;;;;;;;;;5091651;28;20204;-47
2023/09/21 01:12:44;;;;;;;1.50;1.40;;;;;;;;;;5090885;28;20202;-47
2023/09/21 01:15:11;;;;;;;2.00;1.23;;;;;;;;;;5090658;28;20418;-50
2023/09/21 01:17:39;;;;;;;2.73;1.53;;;;;;;;;;5090449;28;20599;-49
2023/09/21 01:20:23;;;;;;;4.07;2.00;;;;;;;;;;5089189;28;20168;-48
2023/09/21 01:22:55;;;;;;;5.47;1.57;;;;;;;;;;5088536;28;20253;-48
2023/09/21 01:25:21;;;;;;;3.87;1.57;;;;;;;;;;5089109;28;20179;-47
2023/09/21 01:27:51;;;;;;;1.93;1.73;;;;;;;;;;5089089;28;20226;-48
2023/09/21 01:30:17;;;;;;;4.40;1.70;;;;;;;;;;5090146;28;20172;-50
2023/09/21 01:32:43;;;;;;;5.80;1.60;;;;;;;;;;5090368;28;20219;-49
2023/09/21 01:35:09;;;;;;;2.83;1.80;;;;;;;;;;5089962;28;20249;-51
2023/09/21 01:37:35;;;;;;;4.10;1.50;;;;;;;;;;5089875;28;20176;-53
2023/09/21 01:40:10;;;;;;;4.23;1.50;;;;;;;;;;5088779;28;20180;-48
2023/09/21 01:42:36;;;;;;;1.77;1.50;;;;;;;;;;5088970;28;20171;-49
2023/09/21 01:45:03;;;;;;;1.60;1.50;;;;;;;;;;5090318;28;20635;-51
2023/09/21 01:47:30;;;;;;;2.23;1.50;;;;;;;;;;5090723;28;20502;-48
2023/09/21 01:49:56;;;;;;;3.23;1.50;;;;;;;;;;5090947;28;20152;-48
2023/09/21 01:52:22;;;;;;;2.63;1.67;;;;;;;;;;5090866;28;20168;-50
2023/09/21 01:54:48;;;;;;;3.70;1.37;;;;;;;;;;5090573;28;20165;-50
2023/09/21 01:57:15;;;;;;;2.10;1.73;;;;;;;;;;5089824;28;20467;-47
2023/09/21 01:59:41;;;;;;;2.20;1.13;;;;;;;;;;5089950;28;20400;-52
2023/09/21 02:02:07;;;;;;;2.77;1.90;;;;;;;;;;5090211;28;20167;-49
2023/09/21 02:04:33;;;;;;;3.17;1.20;;;;;;;;;;5090602;28;20266;-50
2023/09/21 02:06:59;;;;;;;4.93;1.40;;;;;;;;;;5088354;28;20207;-49
2023/09/21 02:09:25;;;;;;;2.27;1.80;;;;;;;;;;5090693;28;20164;-50
2023/09/21 02:11:51;;;;;;;1.70;1.47;;;;;;;;;;5091098;28;20175;-48
2023/09/21 02:14:17;;;;;;;4.00;1.20;;;;;;;;;;5089795;28;20176;-47
2023/09/21 02:16:44;;;;;;;2.53;1.40;;;;;;;;;;5088422;28;20291;-51
2023/09/21 02:19:10;;;;;;;5.63;1.70;;;;;;;;;;5087796;28;20171;-48
2023/09/21 02:21:36;;;;;;;4.67;1.43;;;;;;;;;;5089021;28;20722;-47
2023/09/21 02:24:04;;;;;;;2.53;1.60;;;;;;;;;;5088722;28;20179;-49
2023/09/21 02:26:30;;;;;;;3.00;1.60;;;;;;;;;;5088322;28;20195;-49
2023/09/21 02:28:56;;;;;;;2.70;1.40;;;;;;;;;;5088934;28;20608;-51
2023/09/21 02:31:22;;;;;;;3.63;1.50;;;;;;;;;;5090246;28;20207;-51
2023/09/21 02:33:49;;;;;;;2.63;1.73;;;;;;;;;;5089962;28;20219;-51
2023/09/21 02:36:19;;;;;;;1.47;1.30;;;;;;;;;;5089126;28;20266;-50
2023/09/21 02:38:45;;;;;;;2.33;1.47;;;;;;;;;;5089530;28;20168;-50
2023/09/21 02:41:11;;;;;;;2.00;1.50;;;;;;;;;;5087759;28;20233;-47
2023/09/21 02:43:36;;;;;;;4.17;1.90;;;;;;;;;;5086754;28;20164;-49
2023/09/21 02:46:02;;;;;;;2.30;1.60;;;;;;;;;;5088264;28;20426;-49
2023/09/21 02:48:28;;;;;;;2.10;1.70;;;;;;;;;;5090743;28;20265;-48
2023/09/21 02:50:55;;;;;;;2.40;1.67;;;;;;;;;;5092739;28;20176;-47
2023/09/21 02:53:21;;;;;;;1.97;1.40;;;;;;;;;;5090592;28;20180;-50
2023/09/21 02:55:50;;;;;;;3.23;1.73;;;;;;;;;;5090791;28;20168;-47
2023/09/21 02:58:19;;;;;;;2.33;1.60;;;;;;;;;;5091388;28;20172;-53
2023/09/21 03:00:46;;;;;;;2.33;1.60;;;;;;;;;;5091175;28;20188;-47
2023/09/21 03:03:13;;;;;;;2.00;1.60;;;;;;;;;;5091332;28;20407;-49
2023/09/21 03:05:39;;;;;;;2.40;1.37;;;;;;;;;;5091001;28;20531;-49
2023/09/21 03:08:13;;;;;;;2.20;1.70;;;;;;;;;;5092110;28;20195;-48
2023/09/21 03:10:52;;;;;;;2.27;1.70;;;;;;;;;;5092705;28;20211;-47
2023/09/21 03:13:18;;;;;;;3.07;1.53;;;;;;;;;;5093393;28;20582;-50
2023/09/21 03:15:45;;;;;;;2.07;1.37;;;;;;;;;;5091874;28;20467;-49
2023/09/21 03:18:11;;;;;;;3.63;2.10;;;;;;;;;;5091974;28;20180;-51
2023/09/21 03:20:37;;;;;;;5.03;1.63;;;;;;;;;;5093827;28;20168;-49
2023/09/21 03:23:09;;;;;;;4.33;1.60;;;;;;;;;;5093028;28;20563;-48
2023/09/21 03:25:49;;;;;;;7.07;2.07;;;;;;;;;;5094159;28;20176;-48
2023/09/21 03:28:16;;;;;;;4.80;2.37;;;;;;;;;;5092597;28;20286;-48
2023/09/21 03:30:42;;;;;;;2.40;1.80;;;;;;;;;;5092732;28;20307;-47
2023/09/21 03:33:09;;;;;;;3.27;2.13;;;;;;;;;;5093346;28;20241;-49
2023/09/21 03:35:35;;;;;;;2.10;1.90;;;;;;;;;;5093020;28;20226;-50
2023/09/21 03:38:01;;;;;;;3.63;1.60;;;;;;;;;;5091351;28;20216;-51
2023/09/21 03:40:30;;;;;;;2.07;1.50;;;;;;;;;;5090042;28;20208;-48
2023/09/21 03:42:56;;;;;;;4.17;1.57;;;;;;;;;;5089118;28;20271;-49
2023/09/21 03:45:24;;;;;;;2.17;1.53;;;;;;;;;;5090962;28;20279;-50
2023/09/21 03:50:55;;;;;;;2.80;1.63;;;;;;;;;;5093350;28;20233;-51
2023/09/21 03:53:21;;;;;;;2.40;1.70;;;;;;;;;;5093562;28;20424;-47
2023/09/21 03:55:49;;;;;;;4.03;1.87;;;;;;;;;;5091557;28;20643;-49
2023/09/21 03:58:16;;;;;;;1.87;1.30;;;;;;;;;;5089459;28;20244;-51
2023/09/21 04:00:41;;;;;;;2.53;1.40;;;;;;;;;;5091022;28;20180;-53
2023/09/21 04:03:08;;;;;;;1.90;1.63;;;;;;;;;;5090894;28;20344;-48
2023/09/21 04:05:35;;;;;;;2.67;1.63;;;;;;;;;;5091387;28;20180;-50
2023/09/21 04:08:02;;;;;;;3.00;1.97;;;;;;;;;;5091898;28;20305;-52
2023/09/21 04:10:28;;;;;;;2.27;1.80;;;;;;;;;;5093362;28;20161;-51
2023/09/21 04:12:57;;;;;;;3.03;1.50;;;;;;;;;;5091142;28;20176;-50
2023/09/21 04:15:27;;;;;;;2.70;1.80;;;;;;;;;;5091157;28;20576;-48
2023/09/21 04:17:54;;;;;;;3.70;1.97;;;;;;;;;;5090116;28;20236;-47
2023/09/21 04:20:21;;;;;;;1.87;1.70;;;;;;;;;;5090439;28;20172;-51
2023/09/21 04:22:47;;;;;;;2.63;1.80;;;;;;;;;;5089112;28;20371;-50
2023/09/21 04:25:16;;;;;;;2.33;1.70;;;;;;;;;;5089995;28;20219;-49
2023/09/21 04:27:43;;;;;;;2.47;1.97;;;;;;;;;;5089984;28;20763;-47
2023/09/21 04:30:12;;;;;;;3.43;2.10;;;;;;;;;;5088013;28;20183;-51
2023/09/21 04:32:38;;;;;;;4.17;1.60;;;;;;;;;;5090244;28;20231;-49
2023/09/21 04:35:05;;;;;;;2.57;1.73;;;;;;;;;;5089007;28;20472;-47
2023/09/21 04:37:34;;;;;;;2.80;1.73;;;;;;;;;;5087833;28;20697;-49
2023/09/21 04:40:10;;;;;;;3.57;2.10;;;;;;;;;;5087856;28;20168;-49
2023/09/21 04:42:40;;;;;;;6.93;2.13;;;;;;;;;;5087485;28;20416;-50
2023/09/21 04:45:09;;;;;;;3.13;1.90;;;;;;;;;;5089307;28;20172;-48
2023/09/21 04:47:45;;;;;;;4.40;1.80;;;;;;;;;;5088486;28;20243;-47
2023/09/21 04:50:12;;;;;;;2.40;1.63;;;;;;;;;;5086477;28;20442;-49
2023/09/21 04:52:38;;;;;;;3.50;1.53;;;;;;;;;;5088326;28;20612;-46
2023/09/21 04:55:05;;;;;;;3.07;2.03;;;;;;;;;;5088228;28;20646;-47
2023/09/21 04:57:34;;;;;;;3.20;1.90;;;;;;;;;;5085297;28;20176;-51
2023/09/21 05:00:00;;;;;;;2.83;1.83;;;;;;;;;;5085657;28;20420;-50
2023/09/21 05:02:27;;;;;;;6.10;2.03;;;;;;;;;;5085349;28;20187;-51
2023/09/21 05:04:53;;;;;;;2.30;1.90;;;;;;;;;;5086386;28;20613;-47
2023/09/21 05:07:19;;;;;;;7.97;2.10;;;;;;;;;;5087461;28;20518;-47
2023/09/21 05:09:46;;;;;;;2.93;1.63;;;;;;;;;;5087868;28;20164;-53
2023/09/21 05:12:18;;;;;;;2.00;1.70;;;;;;;;;;5088184;28;20236;-48
2023/09/21 05:14:46;;;;;;;3.73;1.80;;;;;;;;;;5089120;28;20171;-51
2023/09/21 05:17:12;;;;;;;3.63;1.90;;;;;;;;;;5088115;28;20506;-49
2023/09/21 05:19:38;;;;;;;2.50;1.70;;;;;;;;;;5089639;28;20168;-51
2023/09/21 05:22:08;;;;;;;1.83;1.50;;;;;;;;;;5086056;28;20187;-49
2023/09/21 05:24:36;;;;;;;2.23;1.73;;;;;;;;;;5086261;28;20224;-48
2023/09/21 05:27:02;;;;;;;2.33;1.93;;;;;;;;;;5084682;28;20207;-48
2023/09/21 05:29:28;;;;;;;3.87;2.23;;;;;;;;;;5086901;28;20168;-49
2023/09/21 05:31:54;;;;;;;3.77;2.13;;;;;;;;;;5085831;28;20172;-49
2023/09/21 05:34:20;;;;;;;3.57;1.73;;;;;;;;;;5084240;28;20219;-49
2023/09/21 05:36:47;;;;;;;3.77;1.97;;;;;;;;;;5085623;28;20172;-52
2023/09/21 05:39:19;;;;;;;2.13;1.60;;;;;;;;;;5084666;28;20360;-53
2023/09/21 05:41:45;;;;;;;5.63;2.27;;;;;;;;;;5085069;28;20175;-52
2023/09/21 05:44:11;;;;;;;3.33;1.97;;;;;;;;;;5083263;28;20184;-50
2023/09/21 05:46:38;;;;;;;3.40;1.87;;;;;;;;;;5083747;28;20206;-51
2023/09/21 05:49:07;;;;;;;1.50;1.40;;;;;;;;;;5083779;28;20266;-48
2023/09/21 05:51:33;;;;;;;3.40;1.80;;;;;;;;;;5084219;28;20217;-49
2023/09/21 05:54:00;;;;;;;3.10;1.97;;;;;;;;;;5084099;28;20378;-51
2023/09/21 05:56:27;;;;;;;2.23;1.83;;;;;;;;;;5083745;28;20190;-52
2023/09/21 05:58:53;;;;;;;5.17;1.97;;;;;;;;;;5083448;28;20168;-54
2023/09/21 06:01:19;;;;;;;5.20;1.80;;;;;;;;;;5084273;28;20176;-48
2023/09/21 06:03:45;;;;;;;3.13;1.97;;;;;;;;;;5084479;28;20228;-47
2023/09/21 06:06:14;;;;;;;2.60;2.40;;;;;;;;;;5081573;28;20180;-49
2023/09/21 06:08:41;;;;;;;2.27;1.97;;;;;;;;;;5080566;28;20467;-48
2023/09/21 06:11:08;;;;;;;2.83;2.00;;;;;;;;;;5080012;28;20663;-50
2023/09/21 06:13:34;;;;;;;3.07;2.03;;;;;;;;;;5081606;28;20210;-52
2023/09/21 06:16:02;;;;;;;4.87;1.97;;;;;;;;;;5079966;28;20208;-50
2023/09/21 06:18:29;;;;;;;2.97;2.07;;;;;;;;;;5079468;28;20371;-47
2023/09/21 06:20:55;;;;;;;4.33;2.00;;;;;;;;;;5083007;28;20351;-49
2023/09/21 06:23:21;;;;;;;3.70;1.60;;;;;;;;;;5087618;28;20182;-50
2023/09/21 06:25:48;;;;;;;5.67;2.10;;;;;;;;;;5088185;28;20249;-50
2023/09/21 06:28:15;;;;;;;3.70;1.77;;;;;;;;;;5088094;28;20580;-52
2023/09/21 06:30:42;;;;;;;3.47;1.73;;;;;;;;;;5088009;28;20271;-51
2023/09/21 06:33:08;;;;;;;3.47;1.80;;;;;;;;;;5096598;28;20249;-49
2023/09/21 06:35:34;;;;;;;6.13;2.30;;;;;;;;;;5091361;28;20167;-51
2023/09/21 06:38:00;;;;;;;2.87;1.57;;;;;;;;;;5090243;28;20173;-51
2023/09/21 06:40:26;;;;;;;9.13;2.00;;;;;;;;;;5090668;28;20171;-49
2023/09/21 06:42:52;;;;;;;4.50;1.73;;;;;;;;;;5091331;28;20176;-48
2023/09/21 06:45:18;;;;;;;7.43;2.30;;;;;;;;;;5107457;28;20820;-47
2023/09/21 06:47:47;;;;;;;5.33;2.30;;;;;;;;;;5087734;28;20489;-48
2023/09/21 06:50:13;;;;;;;2.07;1.70;;;;;;;;;;5085186;28;20163;-50
2023/09/21 06:52:40;;;;;;;2.30;1.73;;;;;;;;;;5086316;28;20266;-49
2023/09/21 06:55:07;;;;;;;5.73;2.07;;;;;;;;;;5087424;28;20179;-50
2023/09/21 06:57:34;;;;;;;4.53;1.93;;;;;;;;;;5087655;28;20278;-49
2023/09/21 07:00:09;;;;;;;4.40;2.10;;;;;;;;;;5087389;28;20431;-47
2023/09/21 07:02:36;;;;;;;6.73;2.00;;;;;;;;;;5083822;28;20329;-48
2023/09/21 07:05:02;;;;;;;3.27;1.73;;;;;;;;;;5103269;28;20368;-48
2023/09/21 07:07:30;;;;;;;4.67;1.70;;;;;;;;;;5083057;28;20348;-48
2023/09/21 07:09:56;;;;;;;2.13;1.77;;;;;;;;;;5102550;28;20551;-50
2023/09/21 07:12:23;;;;;;;2.83;2.23;;;;;;;;;;5084151;28;20241;-49
2023/09/21 07:14:49;;;;;;;5.40;2.07;;;;;;;;;;5085903;28;20496;-50
2023/09/21 07:17:16;;;;;;;3.47;1.93;;;;;;;;;;5102241;28;20548;-49
2023/09/21 07:19:43;;;;;;;3.03;1.80;;;;;;;;;;5085308;28;20171;-47
2023/09/21 07:22:10;;;;;;;7.67;2.50;;;;;;;;;;5086181;28;20176;-52
2023/09/21 07:24:37;;;;;;;7.57;2.20;;;;;;;;;;5083967;28;20213;-51
2023/09/21 07:27:03;;;;;;;3.30;2.30;;;;;;;;;;5082609;28;20290;-50
2023/09/21 07:29:31;;;;;;;2.10;1.80;;;;;;;;;;5082958;28;20172;-48
2023/09/21 07:31:59;;;;;;;2.07;1.60;;;;;;;;;;5085159;28;20164;-50
2023/09/21 07:34:25;;;;;;;4.17;1.87;;;;;;;;;;5087974;28;20226;-50
2023/09/21 07:36:51;;;;;;;9.97;2.20;;;;;;;;;;5088470;28;20340;-50
2023/09/21 07:39:17;;;;;;;4.13;2.10;;;;;;;;;;5086789;28;20625;-48
2023/09/21 07:41:46;;;;;;;2.00;1.77;;;;;;;;;;5087170;28;20568;-54
2023/09/21 07:44:13;;;;;;;1.87;1.70;;;;;;;;;;5103668;28;20228;-49
2023/09/21 07:46:39;;;;;;;3.50;2.37;;;;;;;;;;5086131;28;20217;-51
2023/09/21 07:49:05;;;;;;;6.83;2.40;;;;;;;;;;5083993;28;20644;-49
2023/09/21 07:51:32;;;;;;;5.17;2.03;;;;;;;;;;5101659;28;20202;-49
2023/09/21 07:54:00;;;;;;;3.03;2.30;;;;;;;;;;5082000;28;20664;-49
2023/09/21 07:56:26;;;;;;;4.13;1.80;;;;;;;;;;5084646;28;20195;-50
2023/09/21 07:58:52;;;;;;;4.80;1.83;;;;;;;;;;5085698;28;20164;-52
2023/09/21 08:01:18;;;;;;;4.10;2.10;;;;;;;;;;5083417;28;20210;-48
2023/09/21 08:03:45;;;;;;;4.87;2.13;;;;;;;;;;5081694;28;20531;-50
2023/09/21 08:06:12;;;;;;;2.73;1.63;;;;;;;;;;5083388;28;20299;-51
2023/09/21 08:08:38;;;;;;;5.23;2.50;;;;;;;;;;5083019;28;20203;-48
2023/09/21 08:11:04;;;;;;;3.97;1.93;;;;;;;;;;5085796;28;20228;-53
2023/09/21 08:13:30;;;;;;;3.80;2.10;;;;;;;;;;5084657;28;20167;-48
2023/09/21 08:15:57;;;;;;;4.43;2.07;;;;;;;;;;5087713;28;20179;-50
2023/09/21 08:18:24;;;;;;;3.67;2.30;;;;;;;;;;5088123;28;20417;-50
2023/09/21 08:20:50;;;;;;;5.83;1.80;;;;;;;;;;5105926;28;20595;-51
2023/09/21 08:23:17;;;;;;;4.73;2.00;;;;;;;;;;5106502;28;20321;-52
2023/09/21 08:25:43;;;;;;;4.37;1.97;;;;;;;;;;5088010;28;20167;-51
2023/09/21 08:28:09;;;;;;;3.23;2.13;;;;;;;;;;5085470;28;20474;-49
2023/09/21 08:30:35;;;;;;;4.93;2.40;;;;;;;;;;5083181;28;20171;-51
2023/09/21 08:33:02;;;;;;;4.77;2.23;;;;;;;;;;5102651;28;20483;-48
2023/09/21 08:35:31;;;;;;;7.40;2.50;;;;;;;;;;5085171;28;20406;-50
2023/09/21 08:37:58;;;;;;;3.53;1.87;;;;;;;;;;5101530;28;20171;-51
2023/09/21 08:40:25;;;;;;;3.00;1.87;;;;;;;;;;5083246;28;20441;-50
2023/09/21 08:42:55;;;;;;;4.63;1.73;;;;;;;;;;5083690;28;20266;-49
2023/09/21 08:45:23;;;;;;;3.57;1.70;;;;;;;;;;5083922;28;20266;-48
2023/09/21 08:47:49;;;;;;;3.43;2.10;;;;;;;;;;5100889;28;20421;-50
2023/09/21 08:50:15;;;;;;;3.83;1.87;;;;;;;;;;5099944;28;20544;-49
2023/09/21 08:52:45;;;;;;;4.17;2.00;;;;;;;;;;5083943;28;20454;-52
2023/09/21 08:55:14;;;;;;;2.17;1.67;;;;;;;;;;5084184;28;20178;-48
2023/09/21 08:57:41;;;;;;;4.20;1.83;;;;;;;;;;5083644;28;20329;-49
2023/09/21 09:00:08;;;;;;;2.43;1.70;;;;;;;;;;5101748;28;20187;-50
2023/09/21 09:02:38;;;;;;;3.40;2.07;;;;;;;;;;5083348;28;20664;-50
2023/09/21 09:05:06;;;;;;;4.60;1.83;;;;;;;;;;5085079;28;20297;-54
2023/09/21 09:07:37;;;;;;;3.73;1.93;;;;;;;;;;5104810;28;20460;-52
2023/09/21 09:10:04;;;;;;;3.53;1.93;;;;;;;;;;5104758;28;20497;-54
2023/09/21 09:12:30;;;;;;;4.20;1.63;;;;;;;;;;5106183;28;20436;-50
2023/09/21 09:15:01;;;;;;;5.43;2.57;;;;;;;;;;5086380;28;20628;-52
2023/09/21 09:17:30;;;;;;;4.63;2.30;;;;;;;;;;5087289;28;20630;-54
2023/09/21 09:19:57;;;;;;;3.47;1.47;;;;;;;;;;5104343;28;20390;-49
2023/09/21 09:22:24;;;;;;;3.00;1.67;;;;;;;;;;5104135;28;20567;-50
2023/09/21 09:24:51;;;;;;;6.30;1.67;;;;;;;;;;5104521;28;20171;-53
2023/09/21 09:27:17;;;;;;;3.70;2.10;;;;;;;;;;5084990;28;20357;-49
2023/09/21 09:30:03;;;;;;;1.90;1.73;;;;;;;;;;5084706;28;20286;-55
2023/09/21 09:32:37;;;;;;;2.47;1.70;;;;;;;;;;5085278;28;20538;-51
2023/09/21 09:35:04;;;;;;;3.20;1.80;;;;;;;;;;5105890;28;20158;-52
2023/09/21 09:37:34;;;;;;;5.70;2.00;;;;;;;;;;5093389;28;20175;-50
2023/09/21 09:40:18;;;;;;;2.43;1.60;;;;;;;;;;5111551;28;20163;-51
2023/09/21 09:42:48;;;;;;;3.77;1.80;;;;;;;;;;5092747;28;20273;-52
2023/09/21 09:45:32;;;;;;;5.23;2.07;;;;;;;;;;5109447;28;20198;-51
2023/09/21 09:48:02;;;;;;;3.57;1.90;;;;;;;;;;5093996;28;20211;-51
2023/09/21 09:50:33;;;;;;;7.30;2.10;;;;;;;;;;5092495;28;20577;-48
2023/09/21 09:53:02;;;;;;;2.73;1.80;;;;;;;;;;5093696;28;20183;-50
2023/09/21 09:55:32;;;;;;;2.63;2.00;;;;;;;;;;5093191;28;20172;-51
2023/09/21 09:57:59;;;;;;;4.50;1.80;;;;;;;;;;5093208;28;20182;-51
2023/09/21 10:00:27;;;;;;;5.83;2.20;;;;;;;;;;5100761;28;20187;-52
2023/09/21 10:03:00;;;;;;;6.10;1.77;;;;;;;;;;5071296;28;20706;-49
2023/09/21 10:05:26;;;;;;;4.43;1.67;;;;;;;;;;5072613;28;20243;-51
2023/09/21 10:07:53;;;;;;;3.90;1.47;;;;;;;;;;5071780;28;20202;-49
2023/09/21 10:10:21;;;;;;;3.87;1.60;;;;;;;;;;5071088;28;20271;-52
2023/09/21 10:12:51;;;;;;;3.10;1.83;;;;;;;;;;5088118;28;20815;-54
2023/09/21 10:15:22;;;;;;;3.90;1.53;;;;;;;;;;5069374;28;20167;-49
2023/09/21 10:17:50;;;;;;;4.63;1.90;;;;;;;;;;5071101;28;20172;-52
2023/09/21 10:20:27;;;;;;;2.70;1.83;;;;;;;;;;5071227;28;20547;-49
2023/09/21 10:22:53;;;;;;;3.17;2.07;;;;;;;;;;5071312;28;20228;-54
2023/09/21 10:25:39;;;;;;;2.20;1.67;;;;;;;;;;5069400;28;20586;-54
2023/09/21 10:28:27;;;;;;;3.37;1.60;;;;;;;;;;5070807;28;20230;-52
2023/09/21 10:30:53;;;;;;;1.90;1.70;;;;;;;;;;5070435;28;20183;-51
2023/09/21 10:33:20;;;;;;;3.80;1.57;;;;;;;;;;5088185;28;20216;-54
2023/09/21 10:35:46;;;;;;;3.67;1.80;;;;;;;;;;5087244;28;20161;-50
2023/09/21 10:38:13;;;;;;;5.20;1.70;;;;;;;;;;5069278;28;20176;-54
2023/09/21 10:40:40;;;;;;;3.07;1.57;;;;;;;;;;5071195;28;20171;-56
2023/09/21 10:43:25;;;;;;;4.05;1.75;;;;;;;;;;5070930;28;20790;-55
2023/09/21 10:45:58;;;;;;;4.63;1.88;;;;;;;;;;5072735;28;20233;-55
2023/09/21 10:48:25;;;;;;;3.60;2.40;;;;;;;;;;5072555;28;20203;-53
2023/09/21 10:50:51;;;;;;;1.85;1.55;;;;;;;;;;5071961;28;20172;-51
2023/09/21 10:53:18;;;;;;;3.90;1.98;;;;;;;;;;5071897;28;20236;-55
2023/09/21 10:55:44;;;;;;;1.98;1.70;;;;;;;;;;5073554;28;20172;-52
2023/09/21 10:58:11;;;;;;;2.47;1.63;;;;;;;;;;5071817;28;20172;-53
2023/09/21 11:00:38;;;;;;;3.20;1.67;;;;;;;;;;5072109;28;20453;-51
2023/09/21 11:03:04;;;;;;;1.90;1.70;;;;;;;;;;5089403;28;20195;-47
2023/09/21 11:05:30;;;;;;;2.15;1.60;;;;;;;;;;5070008;28;20214;-53
2023/09/21 11:07:56;;;;;;;3.58;2.15;;;;;;;;;;5072292;28;20200;-49
2023/09/21 11:10:22;;;;;;;2.35;1.58;;;;;;;;;;5074130;28;20254;-54
2023/09/21 11:12:48;;;;;;;2.97;2.28;;;;;;;;;;5073897;28;20263;-55
2023/09/21 11:15:18;;;;;;;2.90;1.80;;;;;;;;;;5073669;28;20168;-49
2023/09/21 11:17:45;;;;;;;4.22;1.73;;;;;;;;;;5074073;28;20502;-51
2023/09/21 11:20:12;;;;;;;3.28;1.75;;;;;;;;;;5075389;28;20840;-54
2023/09/21 11:22:40;;;;;;;3.65;1.92;;;;;;;;;;5092091;28;20168;-52
2023/09/21 11:25:07;;;;;;;2.20;1.60;;;;;;;;;;5090890;28;20171;-53
2023/09/21 11:27:33;;;;;;;2.40;1.30;;;;;;;;;;5071969;28;20290;-52
2023/09/21 11:29:59;;;;;;;3.15;1.60;;;;;;;;;;5091086;28;20175;-53
2023/09/21 11:32:28;;;;;;;3.40;1.80;;;;;;;;;;5071943;28;20216;-52
2023/09/21 11:34:58;;;;;;;4.45;1.55;;;;;;;;;;5073256;28;20175;-54
2023/09/21 11:37:28;;;;;;;5.35;1.88;;;;;;;;;;5072512;28;20683;-50
2023/09/21 11:39:55;;;;;;;4.07;2.00;;;;;;;;;;5071974;28;20200;-50
2023/09/21 11:42:20;;;;;;;3.08;1.50;;;;;;;;;;5091623;28;20543;-53
2023/09/21 11:44:50;;;;;;;3.60;1.40;;;;;;;;;;5091283;28;20651;-52
2023/09/21 11:47:16;;;;;;;2.77;1.70;;;;;;;;;;5073709;28;20511;-53
2023/09/21 11:49:43;;;;;;;3.60;1.75;;;;;;;;;;5075331;28;20765;-51
2023/09/21 11:52:09;;;;;;;3.25;1.40;;;;;;;;;;5073547;28;20203;-50
2023/09/21 11:54:36;;;;;;;3.83;1.92;;;;;;;;;;5073742;28;20229;-50
2023/09/21 11:57:06;;;;;;;3.60;1.75;;;;;;;;;;5075240;28;20179;-51
2023/09/21 11:59:33;;;;;;;4.32;1.27;;;;;;;;;;5074974;28;20176;-53
2023/09/21 12:02:00;;;;;;;3.73;1.43;;;;;;;;;;5072110;28;20262;-50
2023/09/21 12:04:31;;;;;;;5.53;1.40;;;;;;;;;;5090406;28;20168;-48
2023/09/21 12:06:57;;;;;;;3.67;1.48;;;;;;;;;;5069978;28;20787;-52
2023/09/21 12:09:23;;;;;;;3.20;1.60;;;;;;;;;;5070910;28;20868;-52
2023/09/21 12:11:54;;;;;;;2.75;1.40;;;;;;;;;;5071966;28;20258;-55
2023/09/21 12:14:21;;;;;;;1.60;1.50;;;;;;;;;;5072317;28;20180;-49
2023/09/21 12:16:50;;;;;;;4.50;1.65;;;;;;;;;;5090362;28;20625;-49
2023/09/21 12:19:16;;;;;;;2.55;1.52;;;;;;;;;;5087243;28;20202;-51
2023/09/21 12:21:43;;;;;;;5.13;1.55;;;;;;;;;;5072900;28;20175;-48
2023/09/21 12:24:09;;;;;;;5.28;1.23;;;;;;;;;;5090589;28;20810;-50
2023/09/21 12:26:36;;;;;;;3.83;1.38;;;;;;;;;;5073374;28;20204;-55
2023/09/21 12:29:03;;;;;;;6.32;1.30;;;;;;;;;;5089710;28;20165;-52
2023/09/21 12:31:29;;;;;;;2.85;1.13;;;;;;;;;;5071181;28;20179;-52
2023/09/21 12:33:55;;;;;;;3.72;1.25;;;;;;;;;;5072168;28;20224;-50
2023/09/21 12:36:23;;;;;;;2.38;1.48;;;;;;;;;;5071544;28;20203;-50
2023/09/21 12:38:50;;;;;;;2.92;2.15;;;;;;;;;;5071380;28;20175;-55
2023/09/21 12:41:16;;;;;;;2.45;1.48;;;;;;;;;;5072034;28;20272;-54
2023/09/21 12:43:43;;;;;;;4.82;1.50;;;;;;;;;;5088758;28;20259;-53
2023/09/21 12:46:08;;;;;;;3.05;1.20;;;;;;;;;;5070654;28;20208;-52
2023/09/21 12:48:36;;;;;;;2.72;1.15;;;;;;;;;;5071446;28;20313;-56
2023/09/21 12:51:03;;;;;;;4.43;1.60;;;;;;;;;;5071747;28;20167;-52
2023/09/21 12:53:29;;;;;;;2.33;1.35;;;;;;;;;;5072564;28;20259;-55
2023/09/21 12:55:55;;;;;;;1.92;1.33;;;;;;;;;;5088911;28;20224;-51
2023/09/21 12:58:22;;;;;;;3.45;1.20;;;;;;;;;;5089362;28;20284;-53
2023/09/21 13:00:49;;;;;;;2.38;1.60;;;;;;;;;;5070193;28;20180;-55
2023/09/21 13:03:16;;;;;;;3.65;1.30;;;;;;;;;;5088552;28;20263;-55
2023/09/21 13:05:45;;;;;;;1.50;1.40;;;;;;;;;;5068780;28;20186;-55
2023/09/21 13:08:12;;;;;;;2.38;1.52;;;;;;;;;;5070333;28;20547;-51
2023/09/21 13:10:43;;;;;;;3.50;1.40;;;;;;;;;;5071055;28;20168;-52
2023/09/21 13:13:09;;;;;;;2.80;1.70;;;;;;;;;;5069916;28;20223;-50
2023/09/21 13:15:35;;;;;;;2.95;1.50;;;;;;;;;;5085556;28;20570;-51
2023/09/21 13:18:02;;;;;;;2.22;1.48;;;;;;;;;;5064982;28;20588;-50
2023/09/21 13:20:29;;;;;;;4.15;1.98;;;;;;;;;;5063551;28;20270;-53
2023/09/21 13:22:55;;;;;;;2.85;1.45;;;;;;;;;;5065244;28;20176;-50
2023/09/21 13:25:21;;;;;;;2.30;1.23;;;;;;;;;;5082738;28;20180;-52
2023/09/21 13:27:47;;;;;;;3.97;1.30;;;;;;;;;;5082441;28;20208;-50
2023/09/21 13:30:13;;;;;;;1.70;1.40;;;;;;;;;;5063990;28;20176;-50
2023/09/21 13:32:39;;;;;;;2.10;1.30;;;;;;;;;;5082702;28;20224;-51
2023/09/21 13:35:06;;;;;;;3.03;1.10;;;;;;;;;;5064549;28;20199;-51
2023/09/21 13:37:32;;;;;;;1.23;1.13;;;;;;;;;;5062542;28;20736;-53
2023/09/21 13:39:59;;;;;;;2.17;1.67;;;;;;;;;;5064058;28;20765;-52
2023/09/21 13:42:25;;;;;;;1.70;1.60;;;;;;;;;;5084008;28;20183;-49
2023/09/21 13:44:51;;;;;;;3.90;1.50;;;;;;;;;;5065599;28;20176;-51
2023/09/21 13:47:17;;;;;;;6.63;1.90;;;;;;;;;;5062892;28;20606;-52
2023/09/21 13:49:44;;;;;;;2.90;1.60;;;;;;;;;;5081771;28;20164;-50
2023/09/21 13:52:10;;;;;;;2.23;1.60;;;;;;;;;;5081010;28;20164;-52
2023/09/21 13:54:36;;;;;;;2.70;1.70;;;;;;;;;;5057323;28;20159;-50
2023/09/21 13:57:04;;;;;;;3.17;1.40;;;;;;;;;;5059734;28;20182;-49
2023/09/21 13:59:29;;;;;;;4.13;1.60;;;;;;;;;;5077861;28;20286;-52
2023/09/21 14:01:56;;;;;;;4.83;1.57;;;;;;;;;;5056174;28;20276;-50
2023/09/21 14:04:22;;;;;;;2.10;1.57;;;;;;;;;;5063710;28;20176;-52
2023/09/21 14:06:48;;;;;;;2.77;1.60;;;;;;;;;;5063973;28;20266;-50
2023/09/21 14:09:14;;;;;;;2.70;1.60;;;;;;;;;;5065047;28;20333;-51
2023/09/21 14:11:44;;;;;;;2.33;1.60;;;;;;;;;;5065245;28;20195;-52
2023/09/21 14:14:10;;;;;;;3.37;1.50;;;;;;;;;;5067544;28;20176;-54
2023/09/21 14:16:35;;;;;;;6.10;2.07;;;;;;;;;;5066865;28;20447;-55
2023/09/21 14:19:02;;;;;;;2.60;1.70;;;;;;;;;;5067533;28;20661;-50
2023/09/21 14:21:28;;;;;;;1.70;1.60;;;;;;;;;;5064869;28;20179;-52
2023/09/21 14:23:54;;;;;;;8.13;2.00;;;;;;;;;;5087219;28;20164;-49
2023/09/21 14:26:20;;;;;;;5.93;1.87;;;;;;;;;;5069772;28;20180;-53
2023/09/21 14:28:46;;;;;;;2.47;1.93;;;;;;;;;;5087665;28;20704;-53
2023/09/21 14:31:12;;;;;;;4.73;1.70;;;;;;;;;;5070781;28;20255;-53
2023/09/21 14:33:38;;;;;;;2.97;1.80;;;;;;;;;;5070961;28;20236;-55
2023/09/21 14:36:04;;;;;;;8.80;1.67;;;;;;;;;;5069888;28;20176;-48
2023/09/21 14:38:30;;;;;;;2.13;1.70;;;;;;;;;;5066342;28;20168;-50
2023/09/21 14:40:56;;;;;;;2.03;1.60;;;;;;;;;;5066145;28;20184;-52
2023/09/21 14:43:23;;;;;;;2.43;1.70;;;;;;;;;;5087673;28;20230;-55
2023/09/21 14:45:49;;;;;;;5.30;1.73;;;;;;;;;;5068529;28;20172;-52
2023/09/21 14:48:15;;;;;;;3.10;1.70;;;;;;;;;;5067667;28;20207;-48